Time;durP1;ratioP1;P1;durP2;ratioP2;P2;SDS_P1;SDS_P2;PMS_P1;PMS_P2;Temp;Humidity;BMP_temperature;BMP_pressure;BME280_temperature;BME280_humidity;BME280_pressure;Samples;Min_cycle;Max_cycle;Signal;HPM_P1;HPM_P2
2022/09/29 00:00:29;;;;;;;;;;;;;;;;;;5053348;28;20377;-58
2022/09/29 00:02:55;;;;;;;;;;;;;;;;;;5040575;28;19947;-57
2022/09/29 00:05:22;;;;;;;;;;;;;;;;;;5033689;28;19925;-58
2022/09/29 00:07:49;;;;;;;;;;;;;;;;;;5033510;28;20356;-56
2022/09/29 00:10:15;;;;;;;;;;;;;;;;;;5033323;28;20365;-56
2022/09/29 00:12:42;;;;;;;;;;;;;;;;;;5033448;28;19979;-54
2022/09/29 00:15:11;;;;;;;;;;;;;;;;;;5033254;28;19925;-58
2022/09/29 00:17:37;;;;;;;;;;;;;;;;;;5033304;28;19929;-54
2022/09/29 00:20:04;;;;;;;;;;;;;;;;;;5033254;28;19926;-57
2022/09/29 00:22:31;;;;;;;;;;;;;;;;;;5033145;28;19925;-58
2022/09/29 00:24:57;;;;;;;;;;;;;;;;;;5033302;28;19948;-56
2022/09/29 00:27:24;;;;;;;;;;;;;;;;;;5033140;28;19925;-55
2022/09/29 00:29:50;;;;;;;;;;;;;;;;;;5033100;28;19925;-57
2022/09/29 00:32:18;;;;;;;;;;;;;;;;;;5033228;28;19929;-56
2022/09/29 00:34:45;;;;;;;;;;;;;;;;;;5033079;28;19925;-56
2022/09/29 00:37:12;;;;;;;;;;;;;;;;;;5032780;28;20405;-56
2022/09/29 00:39:39;;;;;;;;;;;;;;;;;;5032244;28;19991;-55
2022/09/29 00:42:05;;;;;;;;;;;;;;;;;;5032794;28;19937;-55
2022/09/29 00:44:51;;;;;;;;;;;;;;;;;;5032745;28;19925;-52
2022/09/29 00:47:19;;;;;;;;;;;;;;;;;;5032686;28;19929;-56
2022/09/29 00:49:50;;;;;;;;;;;;;;;;;;5032382;28;20340;-57
2022/09/29 00:52:18;;;;;;;;;;;;;;;;;;5032538;28;19929;-57
2022/09/29 00:54:48;;;;;;;;;;;;;;;;;;5032750;28;19995;-57
2022/09/29 00:57:16;;;;;;;;;;;;;;;;;;5034182;28;19925;-57
2022/09/29 00:59:45;;;;;;;;;;;;;;;;;;5052172;28;19976;-53
2022/09/29 01:02:12;;;;;;;;;;;;;;;;;;5045390;28;19971;-55
2022/09/29 01:04:40;;;;;;;;;;;;;;;;;;5032406;28;19987;-54
2022/09/29 01:07:07;;;;;;;;;;;;;;;;;;5032350;28;20440;-58
2022/09/29 01:09:36;;;;;;;;;;;;;;;;;;5032256;28;19971;-53
2022/09/29 01:12:02;;;;;;;;;;;;;;;;;;5032648;28;19925;-58
2022/09/29 01:14:30;;;;;;;;;;;;;;;;;;5032308;28;19937;-56
2022/09/29 01:16:56;;;;;;;;;;;;;;;;;;5032212;28;19948;-56
2022/09/29 01:19:26;;;;;;;;;;;;;;;;;;5032029;28;19926;-57
2022/09/29 01:22:00;;;;;;;;;;;;;;;;;;5032276;28;19986;-55
2022/09/29 01:24:41;;;;;;;;;;;;;;;;;;5032324;28;19925;-53
2022/09/29 01:27:13;;;;;;;;;;;;;;;;;;5032244;28;19929;-55
2022/09/29 01:29:54;;;;;;;;;;;;;;;;;;5032086;28;19925;-53
2022/09/29 01:32:27;;;;;;;;;;;;;;;;;;5032074;28;19925;-58
2022/09/29 01:34:58;;;;;;;;;;;;;;;;;;5032141;28;19971;-55
2022/09/29 01:37:31;;;;;;;;;;;;;;;;;;5032146;28;20444;-54
2022/09/29 01:40:02;;;;;;;;;;;;;;;;;;5031881;28;19933;-57
2022/09/29 01:42:32;;;;;;;;;;;;;;;;;;5032213;28;20457;-57
2022/09/29 01:45:02;;;;;;;;;;;;;;;;;;5031930;28;20460;-58
2022/09/29 01:47:33;;;;;;;;;;;;;;;;;;5032213;28;20377;-56
2022/09/29 01:50:03;;;;;;;;;;;;;;;;;;5031648;28;19929;-55
2022/09/29 01:52:31;;;;;;;;;;;;;;;;;;5035823;28;19987;-57
2022/09/29 01:54:59;;;;;;;;;;;;;;;;;;5035964;28;20351;-53
2022/09/29 01:57:28;;;;;;;;;;;;;;;;;;5035790;28;20018;-56
2022/09/29 01:59:58;;;;;;;;;;;;;;;;;;5035735;28;19979;-57
2022/09/29 02:02:27;;;;;;;;;;;;;;;;;;5044306;28;19925;-56
2022/09/29 02:04:57;;;;;;;;;;;;;;;;;;5055661;28;19986;-52
2022/09/29 02:07:25;;;;;;;;;;;;;;;;;;5055453;28;19925;-56
2022/09/29 02:09:56;;;;;;;;;;;;;;;;;;5055636;28;19925;-56
2022/09/29 02:12:26;;;;;;;;;;;;;;;;;;5055612;28;19929;-58
2022/09/29 02:14:53;;;;;;;;;;;;;;;;;;5055559;28;19924;-55
2022/09/29 02:17:21;;;;;;;;;;;;;;;;;;5055399;28;20346;-56
2022/09/29 02:19:49;;;;;;;;;;;;;;;;;;5055234;28;19925;-57
2022/09/29 02:22:17;;;;;;;;;;;;;;;;;;5055460;28;19971;-57
2022/09/29 02:24:44;;;;;;;;;;;;;;;;;;5055558;28;19933;-58
2022/09/29 02:27:11;;;;;;;;;;;;;;;;;;5055430;28;19924;-58
2022/09/29 02:29:37;;;;;;;;;;;;;;;;;;5055669;28;20366;-55
2022/09/29 02:32:05;;;;;;;;;;;;;;;;;;5055318;28;19932;-56
2022/09/29 02:34:32;;;;;;;;;;;;;;;;;;5054953;28;19991;-56
2022/09/29 02:37:02;;;;;;;;;;;;;;;;;;5055338;28;19974;-56
2022/09/29 02:39:35;;;;;;;;;;;;;;;;;;5054869;28;19929;-55
2022/09/29 02:42:06;;;;;;;;;;;;;;;;;;5055113;28;19924;-56
2022/09/29 02:44:39;;;;;;;;;;;;;;;;;;5055334;28;20000;-55
2022/09/29 02:47:14;;;;;;;;;;;;;;;;;;5055189;28;19978;-58
2022/09/29 02:49:47;;;;;;;;;;;;;;;;;;5054616;28;19979;-56
2022/09/29 02:52:18;;;;;;;;;;;;;;;;;;5054696;28;19994;-55
2022/09/29 02:54:49;;;;;;;;;;;;;;;;;;5054407;28;19978;-54
2022/09/29 02:57:19;;;;;;;;;;;;;;;;;;5054757;28;20336;-60
2022/09/29 02:59:50;;;;;;;;;;;;;;;;;;5054580;28;19929;-59
2022/09/29 03:02:22;;;;;;;;;;;;;;;;;;5046353;28;19925;-58
2022/09/29 03:04:49;;;;;;;;;;;;;;;;;;5034730;28;19929;-60
2022/09/29 03:07:15;;;;;;;;;;;;;;;;;;5034546;28;19925;-57
2022/09/29 03:09:43;;;;;;;;;;;;;;;;;;5034535;28;19979;-60
2022/09/29 03:12:11;;;;;;;;;;;;;;;;;;5034790;28;19982;-60
2022/09/29 03:14:37;;;;;;;;;;;;;;;;;;5034572;28;19929;-57
2022/09/29 03:17:04;;;;;;;;;;;;;;;;;;5033393;28;20429;-60
2022/09/29 03:19:30;;;;;;;;;;;;;;;;;;5033148;28;19926;-59
2022/09/29 03:21:57;;;;;;;;;;;;;;;;;;5034272;28;20290;-58
2022/09/29 03:24:24;;;;;;;;;;;;;;;;;;5034510;28;20364;-58
2022/09/29 03:26:50;;;;;;;;;;;;;;;;;;5034289;28;19925;-56
2022/09/29 03:29:18;;;;;;;;;;;;;;;;;;5034061;28;20115;-58
2022/09/29 03:31:45;;;;;;;;;;;;;;;;;;5033891;28;19971;-58
2022/09/29 03:34:11;;;;;;;;;;;;;;;;;;5033900;28;19925;-59
2022/09/29 03:36:40;;;;;;;;;;;;;;;;;;5034190;28;19979;-60
2022/09/29 03:39:06;;;;;;;;;;;;;;;;;;5033587;28;19971;-57
2022/09/29 03:41:33;;;;;;;;;;;;;;;;;;5034080;28;19925;-57
2022/09/29 03:43:59;;;;;;;;;;;;;;;;;;5033612;28;20357;-58
2022/09/29 03:46:28;;;;;;;;;;;;;;;;;;5034110;28;19933;-61
2022/09/29 03:48:54;;;;;;;;;;;;;;;;;;5033889;28;20294;-59
2022/09/29 03:51:21;;;;;;;;;;;;;;;;;;5033486;28;20386;-59
2022/09/29 03:53:47;;;;;;;;;;;;;;;;;;5033709;28;19971;-59
2022/09/29 03:56:14;;;;;;;;;;;;;;;;;;5033976;28;19925;-59
2022/09/29 03:58:41;;;;;;;;;;;;;;;;;;5033484;28;19929;-60
2022/09/29 04:01:07;;;;;;;;;;;;;;;;;;5033877;28;19929;-58
2022/09/29 04:03:35;;;;;;;;;;;;;;;;;;5051395;28;19925;-54
2022/09/29 04:06:02;;;;;;;;;;;;;;;;;;5053723;28;19994;-57
2022/09/29 04:08:29;;;;;;;;;;;;;;;;;;5053697;28;19931;-57
2022/09/29 04:10:55;;;;;;;;;;;;;;;;;;5053443;28;19924;-55
2022/09/29 04:13:22;;;;;;;;;;;;;;;;;;5053442;28;20424;-59
2022/09/29 04:15:49;;;;;;;;;;;;;;;;;;5053025;28;19929;-56
2022/09/29 04:18:16;;;;;;;;;;;;;;;;;;5052996;28;19924;-59
2022/09/29 04:20:44;;;;;;;;;;;;;;;;;;5052954;28;19970;-58
2022/09/29 04:23:11;;;;;;;;;;;;;;;;;;5053873;28;20301;-60
2022/09/29 04:25:38;;;;;;;;;;;;;;;;;;5053290;28;19979;-57
2022/09/29 04:28:04;;;;;;;;;;;;;;;;;;5052927;28;19924;-58
2022/09/29 04:30:31;;;;;;;;;;;;;;;;;;5053021;28;19996;-58
2022/09/29 04:32:57;;;;;;;;;;;;;;;;;;5053090;28;19994;-60
2022/09/29 04:35:24;;;;;;;;;;;;;;;;;;5052667;28;20531;-58
2022/09/29 04:37:55;;;;;;;;;;;;;;;;;;5053320;28;19940;-59
2022/09/29 04:40:21;;;;;;;;;;;;;;;;;;5053018;28;20301;-60
2022/09/29 04:42:48;;;;;;;;;;;;;;;;;;5053022;28;19971;-59
2022/09/29 04:45:15;;;;;;;;;;;;;;;;;;5052427;28;19952;-56
2022/09/29 04:47:41;;;;;;;;;;;;;;;;;;5052677;28;19925;-60
2022/09/29 04:50:08;;;;;;;;;;;;;;;;;;5052340;28;19928;-60
2022/09/29 04:52:35;;;;;;;;;;;;;;;;;;5052627;28;19925;-59
2022/09/29 04:55:03;;;;;;;;;;;;;;;;;;5052796;28;19929;-56
2022/09/29 04:57:29;;;;;;;;;;;;;;;;;;5052694;28;19925;-58
2022/09/29 04:59:56;;;;;;;;;;;;;;;;;;5052293;28;20017;-60
2022/09/29 05:02:22;;;;;;;;;;;;;;;;;;5043701;28;19933;-57
2022/09/29 05:04:49;;;;;;;;;;;;;;;;;;5032460;28;19929;-60
2022/09/29 05:07:15;;;;;;;;;;;;;;;;;;5032546;28;19929;-58
2022/09/29 05:09:42;;;;;;;;;;;;;;;;;;5032112;28;19979;-59
2022/09/29 05:12:10;;;;;;;;;;;;;;;;;;5032237;28;19925;-62
2022/09/29 05:14:36;;;;;;;;;;;;;;;;;;5032420;28;20466;-62
2022/09/29 05:17:03;;;;;;;;;;;;;;;;;;5032305;28;19925;-60
2022/09/29 05:19:30;;;;;;;;;;;;;;;;;;5034136;28;20370;-62
2022/09/29 05:21:58;;;;;;;;;;;;;;;;;;5032383;28;19929;-60
2022/09/29 05:24:24;;;;;;;;;;;;;;;;;;5032568;28;19931;-62
2022/09/29 05:26:51;;;;;;;;;;;;;;;;;;5031518;28;19937;-62
2022/09/29 05:29:19;;;;;;;;;;;;;;;;;;5032347;28;19929;-61
2022/09/29 05:31:46;;;;;;;;;;;;;;;;;;5032430;28;20345;-61
2022/09/29 05:34:12;;;;;;;;;;;;;;;;;;5032411;28;19925;-61
2022/09/29 05:36:39;;;;;;;;;;;;;;;;;;5032322;28;19987;-61
2022/09/29 05:39:05;;;;;;;;;;;;;;;;;;5032259;28;19979;-62
2022/09/29 05:41:32;;;;;;;;;;;;;;;;;;5032348;28;19929;-61
2022/09/29 05:44:00;;;;;;;;;;;;;;;;;;5032236;28;20469;-61
2022/09/29 05:46:28;;;;;;;;;;;;;;;;;;5032205;28;20016;-61
2022/09/29 05:48:54;;;;;;;;;;;;;;;;;;5032296;28;19925;-62
2022/09/29 05:51:23;;;;;;;;;;;;;;;;;;5031975;28;20394;-61
2022/09/29 05:53:49;;;;;;;;;;;;;;;;;;5032120;28;19979;-60
2022/09/29 05:56:18;;;;;;;;;;;;;;;;;;5032142;28;20349;-62
2022/09/29 05:58:45;;;;;;;;;;;;;;;;;;5032188;28;20008;-60
2022/09/29 06:01:12;;;;;;;;;;;;;;;;;;5032378;28;19929;-62
2022/09/29 06:03:40;;;;;;;;;;;;;;;;;;5032012;28;20448;-61
2022/09/29 06:06:07;;;;;;;;;;;;;;;;;;5032118;28;19925;-61
2022/09/29 06:08:34;;;;;;;;;;;;;;;;;;5032071;28;19925;-61
2022/09/29 06:11:04;;;;;;;;;;;;;;;;;;5031891;28;19925;-61
2022/09/29 06:13:31;;;;;;;;;;;;;;;;;;5031972;28;19925;-61
2022/09/29 06:15:58;;;;;;;;;;;;;;;;;;5031775;28;19975;-62
2022/09/29 06:18:24;;;;;;;;;;;;;;;;;;5031899;28;19925;-62
2022/09/29 06:20:52;;;;;;;;;;;;;;;;;;5031678;28;19944;-59
2022/09/29 06:23:19;;;;;;;;;;;;;;;;;;5031763;28;19929;-62
2022/09/29 06:25:45;;;;;;;;;;;;;;;;;;5031717;28;20341;-61
2022/09/29 06:28:12;;;;;;;;;;;;;;;;;;5031549;28;19925;-60
2022/09/29 06:30:38;;;;;;;;;;;;;;;;;;5031842;28;19947;-62
2022/09/29 06:33:05;;;;;;;;;;;;;;;;;;5031857;28;19950;-62
2022/09/29 06:38:16;;;;;;;;;;;;;;;;;;5033776;28;19994;-62
2022/09/29 06:40:43;;;;;;;;;;;;;;;;;;5035365;28;19929;-62
2022/09/29 06:43:11;;;;;;;;;;;;;;;;;;5035364;28;19929;-62
2022/09/29 06:45:37;;;;;;;;;;;;;;;;;;5035090;28;19932;-62
2022/09/29 06:48:04;;;;;;;;;;;;;;;;;;5035182;28;19968;-60
2022/09/29 06:50:31;;;;;;;;;;;;;;;;;;5034713;28;19929;-62
2022/09/29 06:52:57;;;;;;;;;;;;;;;;;;5035126;28;19925;-62
2022/09/29 06:55:25;;;;;;;;;;;;;;;;;;5035134;28;19925;-62
2022/09/29 06:57:52;;;;;;;;;;;;;;;;;;5034484;28;19925;-62
2022/09/29 07:00:18;;;;;;;;;;;;;;;;;;5034992;28;19925;-61
2022/09/29 07:02:45;;;;;;;;;;;;;;;;;;5035310;28;19979;-61
2022/09/29 07:05:12;;;;;;;;;;;;;;;;;;5034987;28;19925;-61
2022/09/29 07:07:38;;;;;;;;;;;;;;;;;;5034463;28;20348;-62
2022/09/29 07:10:05;;;;;;;;;;;;;;;;;;5033817;28;19925;-60
2022/09/29 07:12:33;;;;;;;;;;;;;;;;;;5032708;28;19926;-61
2022/09/29 07:15:00;;;;;;;;;;;;;;;;;;5033325;28;19925;-62
2022/09/29 07:17:26;;;;;;;;;;;;;;;;;;5032993;28;19979;-61
2022/09/29 07:19:55;;;;;;;;;;;;;;;;;;5032582;28;19979;-60
2022/09/29 07:22:22;;;;;;;;;;;;;;;;;;5033012;28;19947;-61
2022/09/29 07:24:49;;;;;;;;;;;;;;;;;;5033158;28;20575;-62
2022/09/29 07:27:23;;;;;;;;;;;;;;;;;;5032814;28;20574;-61
2022/09/29 07:29:51;;;;;;;;;;;;;;;;;;5032923;28;19972;-61
2022/09/29 07:32:17;;;;;;;;;;;;;;;;;;5032543;28;20290;-62
2022/09/29 07:34:44;;;;;;;;;;;;;;;;;;5032092;28;19929;-58
2022/09/29 07:37:10;;;;;;;;;;;;;;;;;;5032613;28;19925;-61
2022/09/29 07:39:37;;;;;;;;;;;;;;;;;;5032460;28;19975;-63
2022/09/29 07:42:03;;;;;;;;;;;;;;;;;;5032086;28;20491;-63
2022/09/29 07:44:31;;;;;;;;;;;;;;;;;;5032667;28;20443;-63
2022/09/29 07:46:59;;;;;;;;;;;;;;;;;;5032376;28;19932;-63
2022/09/29 07:49:26;;;;;;;;;;;;;;;;;;5031741;28;19926;-63
2022/09/29 07:51:52;;;;;;;;;;;;;;;;;;5032011;28;20357;-60
2022/09/29 07:54:19;;;;;;;;;;;;;;;;;;5031864;28;19979;-64
2022/09/29 07:56:45;;;;;;;;;;;;;;;;;;5032133;28;19925;-64
2022/09/29 07:59:12;;;;;;;;;;;;;;;;;;5031866;28;19933;-64
2022/09/29 08:01:38;;;;;;;;;;;;;;;;;;5031809;28;19925;-63
2022/09/29 08:04:07;;;;;;;;;;;;;;;;;;5031793;28;19925;-62
2022/09/29 08:06:34;;;;;;;;;;;;;;;;;;5031826;28;20029;-64
2022/09/29 08:09:00;;;;;;;;;;;;;;;;;;5031739;28;19925;-63
2022/09/29 08:11:27;;;;;;;;;;;;;;;;;;5031785;28;19933;-63
2022/09/29 08:13:55;;;;;;;;;;;;;;;;;;5031377;28;19932;-63
2022/09/29 08:16:22;;;;;;;;;;;;;;;;;;5031391;28;19925;-63
2022/09/29 08:18:49;;;;;;;;;;;;;;;;;;5031464;28;19971;-64
2022/09/29 08:21:17;;;;;;;;;;;;;;;;;;5031936;28;19973;-61
2022/09/29 08:23:43;;;;;;;;;;;;;;;;;;5031401;28;19925;-64
2022/09/29 08:26:11;;;;;;;;;;;;;;;;;;5031425;28;19925;-64
2022/09/29 08:28:38;;;;;;;;;;;;;;;;;;5031049;28;19972;-62
2022/09/29 08:31:06;;;;;;;;;;;;;;;;;;5031180;28;19931;-64
2022/09/29 08:33:33;;;;;;;;;;;;;;;;;;5031649;28;20073;-64
2022/09/29 08:36:00;;;;;;;;;;;;;;;;;;5031267;28;20008;-63
2022/09/29 08:38:27;;;;;;;;;;;;;;;;;;5031119;28;19925;-63
2022/09/29 08:40:54;;;;;;;;;;;;;;;;;;5031186;28;20014;-63
2022/09/29 08:43:25;;;;;;;;;;;;;;;;;;5031423;28;20432;-64
2022/09/29 08:45:57;;;;;;;;;;;;;;;;;;5030730;28;20152;-64
2022/09/29 08:48:25;;;;;;;;;;;;;;;;;;5031226;28;20436;-64
2022/09/29 08:50:56;;;;;;;;;;;;;;;;;;5031025;28;20018;-63
2022/09/29 08:53:24;;;;;;;;;;;;;;;;;;5031081;28;19929;-62
2022/09/29 08:55:53;;;;;;;;;;;;;;;;;;5030818;28;19929;-62
2022/09/29 08:58:20;;;;;;;;;;;;;;;;;;5030654;28;19929;-62
2022/09/29 09:00:52;;;;;;;;;;;;;;;;;;5030301;28;19929;-62
2022/09/29 09:03:28;;;;;;;;;;;;;;;;;;5030866;28;19991;-63
2022/09/29 09:06:02;;;;;;;;;;;;;;;;;;5031051;28;19925;-61
2022/09/29 09:08:38;;;;;;;;;;;;;;;;;;5030988;28;19929;-63
2022/09/29 09:11:15;;;;;;;;;;;;;;;;;;5030850;28;20326;-63
2022/09/29 09:13:57;;;;;;;;;;;;;;;;;;5030769;28;19976;-62
2022/09/29 09:16:32;;;;;;;;;;;;;;;;;;5030538;28;19979;-62
2022/09/29 09:19:02;;;;;;;;;;;;;;;;;;5030466;28;20344;-62
2022/09/29 09:21:37;;;;;;;;;;;;;;;;;;5012278;28;20285;-63
2022/09/29 09:24:08;;;;;;;;;;;;;;;;;;5030847;28;20217;-64
2022/09/29 09:26:38;;;;;;;;;;;;;;;;;;5030970;28;20394;-63
2022/09/29 09:29:07;;;;;;;;;;;;;;;;;;5030610;28;20044;-63
2022/09/29 09:31:39;;;;;;;;;;;;;;;;;;5030592;28;19925;-62
2022/09/29 09:34:07;;;;;;;;;;;;;;;;;;5030462;28;19925;-62
2022/09/29 09:36:35;;;;;;;;;;;;;;;;;;5030740;28;20244;-62
2022/09/29 09:39:04;;;;;;;;;;;;;;;;;;5030418;28;19979;-62
2022/09/29 09:41:33;;;;;;;;;;;;;;;;;;5030494;28;19925;-63
2022/09/29 09:44:05;;;;;;;;;;;;;;;;;;5030272;28;19933;-63
2022/09/29 09:46:36;;;;;;;;;;;;;;;;;;5030627;28;20017;-65
2022/09/29 09:49:05;;;;;;;;;;;;;;;;;;5030222;28;20466;-64
2022/09/29 09:51:34;;;;;;;;;;;;;;;;;;5029960;28;19926;-61
2022/09/29 09:54:04;;;;;;;;;;;;;;;;;;5030089;28;19925;-61
2022/09/29 09:56:42;;;;;;;;;;;;;;;;;;5030326;28;20318;-62
2022/09/29 09:59:19;;;;;;;;;;;;;;;;;;5030712;28;19925;-61
2022/09/29 10:01:45;;;;;;;;;;;;;;;;;;5029894;28;19987;-62
2022/09/29 10:04:13;;;;;;;;;;;;;;;;;;5030079;28;19924;-62
2022/09/29 10:06:39;;;;;;;;;;;;;;;;;;5030109;28;19925;-62
2022/09/29 10:09:06;;;;;;;;;;;;;;;;;;5029875;28;19991;-63
2022/09/29 10:11:32;;;;;;;;;;;;;;;;;;5030906;28;19991;-62
2022/09/29 10:14:01;;;;;;;;;;;;;;;;;;5033924;28;20103;-63
2022/09/29 10:16:33;;;;;;;;;;;;;;;;;;5034556;28;19990;-64
2022/09/29 10:18:59;;;;;;;;;;;;;;;;;;5033699;28;20015;-62
2022/09/29 10:21:35;;;;;;;;;;;;;;;;;;5034171;28;19994;-63
2022/09/29 10:24:03;;;;;;;;;;;;;;;;;;5033905;28;19984;-63
2022/09/29 10:26:32;;;;;;;;;;;;;;;;;;5034363;28;19932;-63
2022/09/29 10:29:00;;;;;;;;;;;;;;;;;;5033577;28;19971;-64
2022/09/29 10:31:28;;;;;;;;;;;;;;;;;;5033626;28;19964;-63
2022/09/29 10:33:58;;;;;;;;;;;;;;;;;;5033594;28;19925;-62
2022/09/29 10:36:26;;;;;;;;;;;;;;;;;;5033994;28;19925;-63
2022/09/29 10:38:53;;;;;;;;;;;;;;;;;;5033440;28;19925;-62
2022/09/29 10:41:20;;;;;;;;;;;;;;;;;;5033172;28;20306;-64
2022/09/29 10:43:47;;;;;;;;;;;;;;;;;;5033875;28;19926;-61
2022/09/29 10:46:41;;;;;;;;;;;;;;;;;;5032984;28;20000;-63
2022/09/29 10:49:13;;;;;;;;;;;;;;;;;;4987172;28;20022;-63
2022/09/29 10:51:40;;;;;;;;;;;;;;;;;;5033829;28;20284;-65
2022/09/29 10:54:08;;;;;;;;;;;;;;;;;;5032861;28;19925;-63
2022/09/29 10:56:34;;;;;;;;;;;;;;;;;;5033507;28;19925;-63
2022/09/29 10:59:02;;;;;;;;;;;;;;;;;;5033225;28;20337;-63
2022/09/29 11:01:30;;;;;;;;;;;;;;;;;;5033787;28;19925;-64
2022/09/29 11:04:00;;;;;;;;;;;;;;;;;;5053261;28;19977;-63
2022/09/29 11:06:30;;;;;;;;;;;;;;;;;;5053290;28;20283;-61
2022/09/29 11:08:58;;;;;;;;;;;;;;;;;;5052711;28;20322;-67
2022/09/29 11:11:26;;;;;;;;;;;;;;;;;;5052851;28;20150;-67
2022/09/29 11:13:53;;;;;;;;;;;;;;;;;;5052621;28;19932;-62
2022/09/29 11:16:24;;;;;;;;;;;;;;;;;;5052817;28;19929;-62
2022/09/29 11:18:52;;;;;;;;;;;;;;;;;;5052650;28;19925;-62
2022/09/29 11:21:49;;;;;;;;;;;;;;;;;;5052875;28;19924;-62
2022/09/29 11:24:18;;;;;;;;;;;;;;;;;;5051922;28;20417;-62
2022/09/29 11:26:47;;;;;;;;;;;;;;;;;;5052550;28;19925;-62
2022/09/29 11:29:31;;;;;;;;;;;;;;;;;;5052519;28;19925;-62
2022/09/29 11:32:10;;;;;;;;;;;;;;;;;;5051505;28;19972;-59
2022/09/29 11:34:45;;;;;;;;;;;;;;;;;;5052175;28;19929;-60
2022/09/29 11:37:17;;;;;;;;;;;;;;;;;;5052230;28;19932;-60
2022/09/29 11:39:50;;;;;;;;;;;;;;;;;;5051884;28;20444;-57
2022/09/29 11:42:22;;;;;;;;;;;;;;;;;;5051996;28;20056;-59
2022/09/29 11:44:59;;;;;;;;;;;;;;;;;;5051947;28;19925;-59
2022/09/29 11:47:35;;;;;;;;;;;;;;;;;;5051930;28;19994;-61
2022/09/29 11:50:17;;;;;;;;;;;;;;;;;;5051684;28;19925;-58
2022/09/29 11:52:55;;;;;;;;;;;;;;;;;;5049965;28;19978;-59
2022/09/29 11:55:40;;;;;;;;;;;;;;;;;;5051891;28;19925;-59
2022/09/29 11:58:14;;;;;;;;;;;;;;;;;;5052084;28;20022;-59
2022/09/29 12:00:47;;;;;;;;;;;;;;;;;;5051556;28;19972;-59
2022/09/29 12:03:19;;;;;;;;;;;;;;;;;;5036627;28;19925;-59
2022/09/29 12:05:53;;;;;;;;;;;;;;;;;;5032076;28;19925;-58
2022/09/29 12:08:26;;;;;;;;;;;;;;;;;;5031437;28;19929;-59
2022/09/29 12:10:57;;;;;;;;;;;;;;;;;;5031623;28;19925;-59
2022/09/29 12:13:30;;;;;;;;;;;;;;;;;;5031575;28;19933;-58
2022/09/29 12:15:59;;;;;;;;;;;;;;;;;;5031967;28;19979;-60
2022/09/29 12:18:28;;;;;;;;;;;;;;;;;;5031763;28;20298;-60
2022/09/29 12:20:56;;;;;;;;;;;;;;;;;;5031551;28;19925;-60
2022/09/29 12:23:24;;;;;;;;;;;;;;;;;;5031805;28;19929;-59
2022/09/29 12:25:53;;;;;;;;;;;;;;;;;;5031205;28;19990;-59
2022/09/29 12:28:23;;;;;;;;;;;;;;;;;;5031235;28;20430;-59
2022/09/29 12:30:53;;;;;;;;;;;;;;;;;;5031278;28;19925;-58
2022/09/29 12:33:21;;;;;;;;;;;;;;;;;;5031391;28;19924;-59
2022/09/29 12:35:51;;;;;;;;;;;;;;;;;;5029928;28;19987;-59
2022/09/29 12:38:20;;;;;;;;;;;;;;;;;;5031121;28;19925;-59
2022/09/29 12:40:50;;;;;;;;;;;;;;;;;;5031034;28;19929;-59
2022/09/29 12:43:19;;;;;;;;;;;;;;;;;;5031540;28;19925;-59
2022/09/29 12:45:49;;;;;;;;;;;;;;;;;;5031022;28;20440;-57
2022/09/29 12:48:21;;;;;;;;;;;;;;;;;;5031353;28;20345;-60
2022/09/29 12:50:50;;;;;;;;;;;;;;;;;;5030626;28;19929;-60
2022/09/29 12:53:19;;;;;;;;;;;;;;;;;;5030993;28;19925;-60
2022/09/29 12:55:48;;;;;;;;;;;;;;;;;;5030646;28;20405;-61
2022/09/29 12:58:18;;;;;;;;;;;;;;;;;;5030875;28;19929;-61
2022/09/29 13:00:49;;;;;;;;;;;;;;;;;;5030469;28;19988;-60
2022/09/29 13:03:38;;;;;;;;;;;;;;;;;;5046102;28;20038;-60
2022/09/29 13:06:14;;;;;;;;;;;;;;;;;;5050922;28;20516;-60
2022/09/29 13:08:48;;;;;;;;;;;;;;;;;;5050360;28;19971;-60
2022/09/29 13:11:33;;;;;;;;;;;;;;;;;;5050730;28;19970;-61
2022/09/29 13:14:18;;;;;;;;;;;;;;;;;;5050615;28;20420;-61
2022/09/29 13:17:02;;;;;;;;;;;;;;;;;;5050222;28;19925;-60
2022/09/29 13:19:49;;;;;;;;;;;;;;;;;;5050153;28;20475;-60
2022/09/29 13:22:25;;;;;;;;;;;;;;;;;;5008944;28;19929;-60
2022/09/29 13:24:56;;;;;;;;;;;;;;;;;;5050490;28;19968;-61
2022/09/29 13:27:25;;;;;;;;;;;;;;;;;;5050336;28;19978;-59
2022/09/29 13:29:54;;;;;;;;;;;;;;;;;;5050250;28;20170;-61
2022/09/29 13:32:22;;;;;;;;;;;;;;;;;;5050109;28;19979;-61
2022/09/29 13:34:52;;;;;;;;;;;;;;;;;;5050035;28;20011;-61
2022/09/29 13:37:21;;;;;;;;;;;;;;;;;;5050381;28;19980;-61
2022/09/29 13:39:54;;;;;;;;;;;;;;;;;;5050277;28;19990;-61
2022/09/29 13:42:35;;;;;;;;;;;;;;;;;;5050079;28;19929;-59
2022/09/29 13:45:16;;;;;;;;;;;;;;;;;;5045871;28;20499;-59
2022/09/29 13:47:47;;;;;;;;;;;;;;;;;;5032042;28;19924;-60
2022/09/29 13:50:32;;;;;;;;;;;;;;;;;;5053638;28;19929;-59
2022/09/29 13:53:13;;;;;;;;;;;;;;;;;;5053991;28;20397;-59
2022/09/29 13:55:51;;;;;;;;;;;;;;;;;;5053598;28;19929;-59
2022/09/29 13:58:22;;;;;;;;;;;;;;;;;;5053904;28;19959;-60
2022/09/29 14:00:48;;;;;;;;;;;;;;;;;;5053780;28;19933;-59
2022/09/29 14:03:26;;;;;;;;;;;;;;;;;;5037790;28;19972;-60
2022/09/29 14:06:07;;;;;;;;;;;;;;;;;;5033823;28;19936;-59
2022/09/29 14:08:38;;;;;;;;;;;;;;;;;;5033727;28;19925;-60
2022/09/29 14:11:11;;;;;;;;;;;;;;;;;;5033917;28;20373;-59
2022/09/29 14:13:41;;;;;;;;;;;;;;;;;;5033935;28;19929;-61
2022/09/29 14:16:29;;;;;;;;;;;;;;;;;;5034294;28;20267;-61
2022/09/29 14:19:00;;;;;;;;;;;;;;;;;;5026905;28;19987;-60
2022/09/29 14:21:46;;;;;;;;;;;;;;;;;;5033429;28;19928;-60
2022/09/29 14:24:31;;;;;;;;;;;;;;;;;;5033424;28;19925;-60
2022/09/29 14:27:17;;;;;;;;;;;;;;;;;;5033767;28;19987;-60
2022/09/29 14:29:47;;;;;;;;;;;;;;;;;;5033402;28;19979;-60
2022/09/29 14:32:17;;;;;;;;;;;;;;;;;;5033672;28;20482;-60
2022/09/29 14:34:43;;;;;;;;;;;;;;;;;;5033409;28;19933;-61
2022/09/29 14:37:14;;;;;;;;;;;;;;;;;;5033321;28;19925;-60
2022/09/29 14:39:40;;;;;;;;;;;;;;;;;;5033393;28;19931;-58
2022/09/29 14:42:16;;;;;;;;;;;;;;;;;;5033244;28;19925;-59
2022/09/29 14:53:21;;;;;;;;;;;;;;;;;;5033201;28;19931;-59
2022/09/29 14:55:53;;;;;;;;;;;;;;;;;;5032872;28;19952;-60
2022/09/29 14:58:28;;;;;;;;;;;;;;;;;;5031878;28;19971;-61
2022/09/29 15:01:07;;;;;;;;;;;;;;;;;;5032966;28;19931;-60
2022/09/29 15:03:36;;;;;;;;;;;;;;;;;;5050647;28;20051;-59
2022/09/29 15:06:04;;;;;;;;;;;;;;;;;;5052789;28;19924;-60
2022/09/29 15:08:33;;;;;;;;;;;;;;;;;;5052370;28;19986;-59
2022/09/29 15:10:59;;;;;;;;;;;;;;;;;;5052905;28;19925;-60
2022/09/29 15:13:30;;;;;;;;;;;;;;;;;;5052945;28;19931;-61
2022/09/29 15:16:00;;;;;;;;;;;;;;;;;;5053104;28;19971;-60
2022/09/29 15:18:32;;;;;;;;;;;;;;;;;;5052666;28;19986;-61
2022/09/29 15:21:00;;;;;;;;;;;;;;;;;;5052681;28;19928;-60
2022/09/29 15:23:42;;;;;;;;;;;;;;;;;;5052561;28;19971;-59
2022/09/29 15:26:11;;;;;;;;;;;;;;;;;;5052281;28;20716;-61
2022/09/29 15:28:41;;;;;;;;;;;;;;;;;;5052423;28;19925;-60
2022/09/29 15:31:12;;;;;;;;;;;;;;;;;;5052287;28;19925;-60
2022/09/29 15:33:40;;;;;;;;;;;;;;;;;;5052337;28;19928;-60
2022/09/29 15:36:07;;;;;;;;;;;;;;;;;;5052624;28;19925;-60
2022/09/29 15:38:37;;;;;;;;;;;;;;;;;;5052331;28;19925;-59
2022/09/29 15:41:04;;;;;;;;;;;;;;;;;;5052651;28;20386;-61
2022/09/29 15:43:39;;;;;;;;;;;;;;;;;;5052178;28;20352;-60
2022/09/29 15:46:15;;;;;;;;;;;;;;;;;;5052668;28;19925;-61
2022/09/29 15:48:43;;;;;;;;;;;;;;;;;;5052094;28;19931;-62
2022/09/29 15:51:16;;;;;;;;;;;;;;;;;;5052146;28;19982;-63
2022/09/29 15:53:43;;;;;;;;;;;;;;;;;;5051952;28;19987;-60
2022/09/29 15:56:10;;;;;;;;;;;;;;;;;;5052024;28;19990;-60
2022/09/29 15:58:42;;;;;;;;;;;;;;;;;;5051744;28;19977;-60
2022/09/29 16:01:11;;;;;;;;;;;;;;;;;;5051897;28;19929;-60
2022/09/29 16:03:40;;;;;;;;;;;;;;;;;;5051752;28;19929;-59
2022/09/29 16:06:13;;;;;;;;;;;;;;;;;;5052218;28;19924;-60
2022/09/29 16:08:43;;;;;;;;;;;;;;;;;;5051929;28;20400;-60
2022/09/29 16:11:18;;;;;;;;;;;;;;;;;;5051441;28;19932;-59
2022/09/29 16:13:48;;;;;;;;;;;;;;;;;;5051552;28;19925;-60
2022/09/29 16:16:15;;;;;;;;;;;;;;;;;;5052077;28;20324;-60
2022/09/29 16:18:44;;;;;;;;;;;;;;;;;;5051580;28;19958;-63
2022/09/29 16:21:12;;;;;;;;;;;;;;;;;;5051540;28;19924;-59
2022/09/29 16:23:42;;;;;;;;;;;;;;;;;;5051553;28;19925;-60
2022/09/29 16:26:12;;;;;;;;;;;;;;;;;;5051459;28;19925;-59
2022/09/29 16:28:40;;;;;;;;;;;;;;;;;;5050919;28;19925;-59
2022/09/29 16:31:07;;;;;;;;;;;;;;;;;;5051576;28;19925;-59
2022/09/29 16:33:44;;;;;;;;;;;;;;;;;;5051324;28;20081;-59
2022/09/29 16:36:13;;;;;;;;;;;;;;;;;;5051592;28;19925;-60
2022/09/29 16:38:40;;;;;;;;;;;;;;;;;;5050896;28;19962;-60
2022/09/29 16:41:08;;;;;;;;;;;;;;;;;;5051175;28;19971;-60
2022/09/29 16:43:35;;;;;;;;;;;;;;;;;;5051048;28;20305;-60
2022/09/29 16:46:03;;;;;;;;;;;;;;;;;;5051233;28;19925;-60
2022/09/29 16:48:30;;;;;;;;;;;;;;;;;;5050883;28;20606;-60
2022/09/29 16:50:57;;;;;;;;;;;;;;;;;;5050733;28;19925;-60
2022/09/29 16:53:28;;;;;;;;;;;;;;;;;;5051091;28;19924;-60
2022/09/29 16:55:58;;;;;;;;;;;;;;;;;;5050896;28;19929;-60
2022/09/29 16:58:25;;;;;;;;;;;;;;;;;;5050611;28;19947;-60
2022/09/29 17:00:52;;;;;;;;;;;;;;;;;;5050674;28;19935;-60
2022/09/29 17:03:18;;;;;;;;;;;;;;;;;;5034694;28;19987;-60
2022/09/29 17:05:47;;;;;;;;;;;;;;;;;;5030685;28;19979;-59
2022/09/29 17:08:15;;;;;;;;;;;;;;;;;;5030373;28;20031;-60
2022/09/29 17:10:43;;;;;;;;;;;;;;;;;;5030503;28;19926;-59
2022/09/29 17:13:12;;;;;;;;;;;;;;;;;;5030712;28;19971;-59